createdAt,value
2023-04-04T00:00:52.819Z,1.30
2023-04-04T00:03:21.420Z,1.30
2023-04-04T00:05:49.599Z,1.27
2023-04-04T00:08:17.998Z,1.21
2023-04-04T00:10:46.545Z,1.29
2023-04-04T00:13:18.217Z,1.38
2023-04-04T00:15:46.162Z,1.32
2023-04-04T00:18:14.303Z,1.05
2023-04-04T00:20:42.734Z,1.05
2023-04-04T00:23:11.367Z,1.07
2023-04-04T00:25:39.408Z,0.93
2023-04-04T00:28:07.402Z,1.15
2023-04-04T00:30:37.604Z,0.98
2023-04-04T00:33:06.557Z,0.79
2023-04-04T00:35:34.809Z,0.83
2023-04-04T00:38:02.955Z,0.93
2023-04-04T00:40:31.000Z,0.98
2023-04-04T00:43:00.718Z,0.95
2023-04-04T00:45:28.930Z,1.06
2023-04-04T00:47:59.685Z,0.73
2023-04-04T00:50:27.862Z,0.70
2023-04-04T00:52:56.190Z,1.04
2023-04-04T00:55:24.380Z,0.98
2023-04-04T00:57:52.926Z,1.10
2023-04-04T01:00:21.300Z,1.05
2023-04-04T01:02:49.450Z,1.06
2023-04-04T01:05:18.995Z,0.96
2023-04-04T01:07:47.062Z,0.80
2023-04-04T01:10:18.065Z,0.69
2023-04-04T01:12:46.953Z,0.68
2023-04-04T01:15:15.063Z,0.63
2023-04-04T01:17:44.912Z,0.53
2023-04-04T01:20:16.879Z,0.59
2023-04-04T01:22:52.980Z,0.64
2023-04-04T01:25:30.220Z,0.63
2023-04-04T01:28:00.391Z,0.42
2023-04-04T01:30:33.060Z,0.51
2023-04-04T01:33:03.301Z,0.33
2023-04-04T01:35:34.792Z,0.36
2023-04-04T01:38:07.932Z,0.30
2023-04-04T01:40:39.093Z,0.23
2023-04-04T01:43:09.862Z,0.33
2023-04-04T01:45:39.571Z,0.30
2023-04-04T01:48:11.232Z,0.22
2023-04-04T01:50:40.377Z,0.42
2023-04-04T01:53:11.505Z,0.43
2023-04-04T01:55:40.994Z,0.56
2023-04-04T01:58:09.500Z,0.73
2023-04-04T02:00:37.583Z,0.69
2023-04-04T02:03:05.881Z,0.58
2023-04-04T02:05:33.861Z,0.43
2023-04-04T02:08:02.806Z,0.42
2023-04-04T02:10:43.353Z,0.35
2023-04-04T02:13:11.368Z,0.36
2023-04-04T02:15:39.780Z,0.56
2023-04-04T02:18:07.821Z,0.31
2023-04-04T02:20:35.665Z,0.31
2023-04-04T02:23:03.478Z,0.23
2023-04-04T02:25:31.679Z,0.18
2023-04-04T02:28:00.982Z,0.26
2023-04-04T02:30:28.837Z,0.08
2023-04-04T02:32:59.883Z,0.01
2023-04-04T02:35:28.012Z,0.08
2023-04-04T02:37:56.850Z,0.07
2023-04-04T02:40:28.884Z,-0.10
2023-04-04T02:42:56.922Z,-0.13
2023-04-04T02:45:26.606Z,-0.23
2023-04-04T02:48:03.871Z,-0.12
2023-04-04T02:50:45.018Z,-0.24
2023-04-04T02:53:14.954Z,-0.18
2023-04-04T02:55:43.498Z,0.05
2023-04-04T02:58:11.574Z,-0.05
2023-04-04T03:00:41.237Z,-0.33
2023-04-04T03:03:09.748Z,-0.42
2023-04-04T03:05:42.836Z,-0.52
2023-04-04T03:08:10.882Z,-0.50
2023-04-04T03:10:41.006Z,-0.67
2023-04-04T03:13:09.588Z,-0.56
2023-04-04T03:15:38.114Z,-0.65
2023-04-04T03:18:07.782Z,-0.55
2023-04-04T03:20:37.232Z,-0.46
2023-04-04T03:23:05.300Z,-0.40
2023-04-04T03:25:33.190Z,-0.60
2023-04-04T03:28:09.754Z,-0.44
2023-04-04T03:30:38.233Z,-0.34
2023-04-04T03:33:08.436Z,-0.38
2023-04-04T03:35:39.628Z,-0.53
2023-04-04T03:38:07.860Z,-0.56
2023-04-04T03:40:35.801Z,-0.46
2023-04-04T03:43:08.541Z,-0.32
2023-04-04T03:45:39.985Z,-0.51
2023-04-04T03:48:11.209Z,-0.48
2023-04-04T03:50:40.714Z,-0.61
2023-04-04T03:53:09.148Z,-0.59
2023-04-04T03:55:37.197Z,-0.73
2023-04-04T03:58:05.255Z,-0.76
2023-04-04T04:00:33.182Z,-0.60
2023-04-04T04:03:01.068Z,-0.35
2023-04-04T04:05:32.832Z,-0.44
2023-04-04T04:08:00.840Z,-0.58
2023-04-04T04:10:28.716Z,-0.57
2023-04-04T04:12:57.018Z,-0.50
2023-04-04T04:15:24.854Z,-0.79
2023-04-04T04:17:52.692Z,-0.88
2023-04-04T04:20:20.456Z,-0.93
2023-04-04T04:22:54.330Z,-0.85
2023-04-04T04:25:22.581Z,-1.05
2023-04-04T04:28:01.527Z,-1.17
2023-04-04T04:30:29.474Z,-1.18
2023-04-04T04:32:58.055Z,-1.20
2023-04-04T04:35:32.668Z,-1.09
2023-04-04T04:38:04.515Z,-1.05
2023-04-04T04:40:32.576Z,-1.18
2023-04-04T04:43:07.850Z,-1.14
2023-04-04T04:45:36.029Z,-1.13
2023-04-04T04:48:08.007Z,-1.13
2023-04-04T04:50:44.336Z,-1.18
2023-04-04T04:53:14.950Z,-1.11
2023-04-04T04:55:43.822Z,-1.26
2023-04-04T04:58:12.731Z,-1.05
2023-04-04T05:00:46.412Z,-1.11
2023-04-04T05:03:14.319Z,-1.00
2023-04-04T05:05:48.609Z,-0.87
2023-04-04T05:08:19.636Z,-0.95
2023-04-04T05:11:05.502Z,-0.74
2023-04-04T05:13:35.199Z,-0.88
2023-04-04T05:16:04.949Z,-0.87
2023-04-04T05:18:33.887Z,-0.82
2023-04-04T05:21:02.652Z,-0.61
2023-04-04T05:23:32.865Z,-0.77
2023-04-04T05:26:01.142Z,-0.71
2023-04-04T05:28:34.681Z,-0.81
2023-04-04T05:31:05.200Z,-0.75
2023-04-04T05:33:35.578Z,-0.69
2023-04-04T05:36:16.999Z,-0.62
2023-04-04T05:38:54.752Z,-0.18
2023-04-04T05:41:25.749Z,-0.54
2023-04-04T05:43:57.605Z,-0.32
2023-04-04T05:46:26.270Z,-0.30
2023-04-04T05:48:55.390Z,-0.13
2023-04-04T05:51:24.722Z,-0.08
2023-04-04T05:54:09.636Z,0.17
2023-04-04T05:56:39.034Z,0.54
2023-04-04T05:59:12.864Z,0.70
2023-04-04T06:01:53.365Z,0.43
2023-04-04T06:04:21.280Z,0.39
2023-04-04T06:06:49.378Z,0.79
2023-04-04T06:09:19.368Z,0.70
2023-04-04T06:11:47.340Z,0.42
2023-04-04T06:14:15.479Z,0.56
2023-04-04T06:16:45.076Z,0.88
2023-04-04T06:19:13.867Z,0.61
2023-04-04T06:21:42.548Z,0.62
2023-04-04T06:24:11.853Z,0.64
2023-04-04T06:26:42.738Z,0.95
2023-04-04T06:29:10.876Z,1.50
2023-04-04T06:31:40.842Z,1.63
2023-04-04T06:34:13.492Z,1.45
2023-04-04T06:36:54.660Z,1.54
2023-04-04T06:39:25.269Z,1.51
2023-04-04T06:41:56.307Z,1.25
2023-04-04T06:44:27.876Z,1.86
2023-04-04T06:46:56.055Z,2.10
2023-04-04T06:49:26.177Z,2.03
2023-04-04T06:51:54.688Z,1.79
2023-04-04T06:54:23.233Z,1.91
2023-04-04T06:56:52.861Z,1.81
2023-04-04T06:59:23.111Z,2.10
2023-04-04T07:01:51.265Z,1.90
2023-04-04T07:04:20.451Z,2.17
2023-04-04T07:06:48.471Z,2.50
2023-04-04T07:09:28.195Z,2.74
2023-04-04T07:11:57.366Z,3.22
2023-04-04T07:14:28.218Z,2.86
2023-04-04T07:16:56.261Z,3.78
2023-04-04T07:19:28.650Z,2.99
2023-04-04T07:21:56.995Z,3.07
2023-04-04T07:24:25.540Z,3.73
2023-04-04T07:26:53.451Z,3.98
2023-04-04T07:29:22.178Z,4.28
2023-04-04T07:31:54.061Z,3.35
2023-04-04T07:34:22.574Z,4.10
2023-04-04T07:36:50.466Z,4.12
2023-04-04T07:39:18.294Z,4.85
2023-04-04T07:41:46.758Z,4.49
2023-04-04T07:44:14.631Z,4.87
2023-04-04T07:46:42.649Z,6.01
2023-04-04T07:49:12.667Z,5.59
2023-04-04T07:51:40.561Z,4.81
2023-04-04T07:54:09.045Z,5.72
2023-04-04T07:56:37.934Z,6.10
2023-04-04T07:59:06.409Z,6.95
2023-04-04T08:01:37.728Z,7.42
2023-04-04T08:04:06.364Z,7.35
2023-04-04T08:06:37.352Z,7.17
2023-04-04T08:09:06.256Z,8.14
2023-04-04T08:11:39.470Z,8.44
2023-04-04T08:14:11.895Z,7.35
2023-04-04T08:16:41.236Z,8.01
2023-04-04T08:19:10.730Z,8.36
2023-04-04T08:21:41.530Z,7.46
2023-04-04T08:24:09.839Z,8.43
2023-04-04T08:26:37.987Z,8.70
2023-04-04T08:29:06.625Z,9.16
2023-04-04T08:31:35.221Z,8.59
2023-04-04T08:34:08.158Z,8.36
2023-04-04T08:36:53.767Z,9.43
2023-04-04T08:39:36.543Z,9.04
2023-04-04T08:42:06.586Z,8.30
2023-04-04T08:44:36.275Z,8.74
2023-04-04T08:47:06.422Z,10.07
2023-04-04T08:49:44.599Z,10.72
2023-04-04T08:52:16.777Z,8.60
2023-04-04T08:54:47.877Z,8.70
2023-04-04T08:57:16.505Z,9.13
2023-04-04T08:59:48.555Z,9.52
2023-04-04T09:02:30.398Z,8.62
2023-04-04T09:05:16.041Z,8.84
2023-04-04T09:08:01.122Z,8.19
2023-04-04T09:10:51.546Z,8.30
2023-04-04T09:13:27.781Z,8.91
2023-04-04T09:15:59.399Z,9.88
2023-04-04T09:18:36.475Z,8.95
2023-04-04T09:21:24.591Z,10.20
2023-04-04T09:24:01.821Z,11.19
2023-04-04T09:26:32.571Z,11.62
2023-04-04T09:29:10.153Z,11.17
2023-04-04T09:31:44.115Z,11.36
2023-04-04T09:34:31.890Z,9.91
2023-04-04T09:37:00.638Z,11.66
2023-04-04T09:39:31.590Z,10.65
2023-04-04T09:42:03.013Z,9.52
2023-04-04T09:44:42.668Z,9.06
2023-04-04T09:47:33.076Z,10.48
2023-04-04T09:50:12.713Z,8.88
2023-04-04T09:53:01.239Z,7.84
2023-04-04T09:55:35.619Z,9.65
2023-04-04T09:58:13.456Z,7.75
2023-04-04T10:00:45.143Z,8.86
2023-04-04T10:03:17.692Z,8.30
2023-04-04T10:05:59.485Z,9.46
2023-04-04T10:08:28.983Z,8.07
2023-04-04T10:11:10.418Z,9.47
2023-04-04T10:13:41.728Z,10.28
2023-04-04T10:16:10.929Z,9.87
2023-04-04T10:18:40.121Z,7.41
2023-04-04T10:23:43.050Z,11.30
2023-04-04T10:26:14.127Z,10.60
2023-04-04T10:28:46.530Z,9.35
2023-04-04T10:31:35.413Z,9.26
2023-04-04T10:34:10.746Z,9.34
2023-04-04T10:36:42.266Z,8.09
2023-04-04T10:39:14.499Z,8.46
2023-04-04T10:41:44.110Z,9.04
2023-04-04T10:44:16.448Z,9.04
2023-04-04T10:46:48.750Z,9.12
2023-04-04T10:49:17.142Z,8.73
2023-04-04T10:51:55.819Z,9.67
2023-04-04T10:54:26.778Z,10.00
2023-04-04T10:57:00.929Z,9.82
2023-04-04T10:59:29.326Z,11.29
2023-04-04T11:02:02.438Z,11.00
2023-04-04T11:04:38.303Z,9.30
2023-04-04T11:07:19.917Z,11.49
2023-04-04T11:09:56.382Z,8.84
2023-04-04T11:12:34.719Z,9.10
2023-04-04T11:15:23.026Z,11.28
2023-04-04T11:18:27.092Z,8.91
2023-04-04T11:21:07.348Z,9.99
2023-04-04T11:24:19.645Z,10.50
2023-04-04T11:26:53.138Z,9.67
2023-04-04T11:30:05.364Z,9.03
2023-04-04T11:33:06.028Z,8.96
2023-04-04T11:35:46.923Z,9.99
2023-04-04T11:38:31.353Z,10.73
2023-04-04T11:41:00.974Z,9.97
2023-04-04T11:43:39.371Z,10.27
2023-04-04T11:46:23.044Z,10.12
2023-04-04T11:49:04.220Z,9.94
2023-04-04T11:51:34.071Z,9.34
2023-04-04T11:54:11.937Z,9.97
2023-04-04T11:57:00.916Z,10.72
2023-04-04T11:59:35.805Z,10.02
2023-04-04T12:02:06.673Z,10.06
2023-04-04T12:04:37.374Z,9.90
2023-04-04T12:07:17.046Z,9.55
2023-04-04T12:10:18.877Z,10.06
2023-04-04T12:13:14.462Z,11.16
2023-04-04T12:15:50.408Z,9.38
2023-04-04T12:18:32.033Z,11.20
2023-04-04T12:21:18.938Z,12.36
2023-04-04T12:24:01.994Z,11.13
2023-04-04T12:26:33.065Z,10.38
2023-04-04T12:29:02.002Z,10.49
2023-04-04T12:31:32.872Z,11.87
2023-04-04T12:34:03.614Z,10.18
2023-04-04T12:36:42.552Z,11.61
2023-04-04T12:39:31.616Z,10.19
2023-04-04T12:42:21.968Z,10.59
2023-04-04T12:44:52.004Z,9.09
2023-04-04T12:47:24.568Z,10.49
2023-04-04T12:49:55.338Z,10.05
2023-04-04T12:52:28.013Z,9.59
2023-04-04T12:55:08.058Z,9.60
2023-04-04T12:57:38.143Z,9.38
2023-04-04T13:00:08.483Z,8.92
2023-04-04T13:02:38.337Z,9.37
2023-04-04T13:05:11.145Z,9.68
2023-04-04T13:07:43.816Z,10.40
2023-04-04T13:10:16.400Z,9.91
2023-04-04T13:12:56.836Z,11.07
2023-04-04T13:15:25.542Z,11.67
2023-04-04T13:17:54.275Z,9.61
2023-04-04T13:20:26.814Z,11.27
2023-04-04T13:22:59.534Z,9.76
2023-04-04T13:25:27.599Z,10.88
2023-04-04T13:27:56.127Z,11.44
2023-04-04T13:30:25.130Z,10.91
2023-04-04T13:32:53.026Z,9.95
2023-04-04T13:35:21.806Z,10.00
2023-04-04T13:37:52.626Z,10.56
2023-04-04T13:40:20.636Z,11.54
2023-04-04T13:42:48.589Z,9.93
2023-04-04T13:45:17.374Z,10.54
2023-04-04T13:47:45.399Z,9.80
2023-04-04T13:50:13.312Z,10.36
2023-04-04T13:52:41.148Z,10.77
2023-04-04T13:55:11.831Z,10.71
2023-04-04T13:57:39.713Z,10.71
2023-04-04T14:00:09.207Z,9.82
2023-04-04T14:02:40.308Z,9.59
2023-04-04T14:05:09.240Z,9.82
2023-04-04T14:07:37.778Z,9.25
2023-04-04T14:10:07.131Z,9.25
2023-04-04T14:12:36.407Z,9.79
2023-04-04T14:15:05.052Z,10.51
2023-04-04T14:17:32.989Z,9.78
2023-04-04T14:20:03.615Z,9.19
2023-04-04T14:22:31.518Z,9.42
2023-04-04T14:24:59.405Z,9.93
2023-04-04T14:27:27.150Z,9.82
2023-04-04T14:29:57.464Z,9.88
2023-04-04T14:32:26.036Z,10.06
2023-04-04T14:34:54.850Z,10.17
2023-04-04T14:37:23.155Z,10.87
2023-04-04T14:39:51.084Z,10.00
2023-04-04T14:42:20.142Z,9.53
2023-04-04T14:44:48.966Z,9.77
2023-04-04T14:47:24.420Z,9.69
2023-04-04T14:49:54.926Z,10.21
2023-04-04T14:52:55.423Z,9.56
2023-04-04T14:55:41.943Z,9.61
2023-04-04T14:58:33.007Z,9.72
2023-04-04T15:01:17.626Z,9.43
2023-04-04T15:04:16.465Z,9.35
2023-04-04T15:06:54.802Z,8.99
2023-04-04T15:09:31.519Z,9.14
2023-04-04T15:12:12.139Z,9.17
2023-04-04T15:14:50.085Z,9.43
2023-04-04T15:17:32.769Z,8.54
2023-04-04T15:20:24.657Z,9.77
2023-04-04T15:23:10.329Z,9.93
2023-04-04T15:25:56.112Z,9.07
2023-04-04T15:28:32.119Z,9.04
2023-04-04T15:31:08.752Z,9.08
2023-04-04T15:33:48.060Z,8.83
2023-04-04T15:36:36.643Z,8.84
2023-04-04T15:39:49.671Z,8.60
2023-04-04T15:42:29.875Z,8.45
2023-04-04T15:45:04.633Z,8.65
2023-04-04T15:47:43.419Z,8.94
2023-04-04T15:50:16.879Z,8.65
2023-04-04T15:52:52.016Z,8.21
2023-04-04T15:55:34.985Z,8.30
2023-04-04T15:58:29.676Z,8.39
2023-04-04T16:01:02.179Z,8.86
2023-04-04T16:03:36.324Z,8.59
2023-04-04T16:06:15.291Z,8.48
2023-04-04T16:08:59.126Z,8.46
2023-04-04T16:11:28.006Z,8.87
2023-04-04T16:13:56.911Z,8.39
2023-04-04T16:16:26.003Z,8.64
2023-04-04T16:18:54.316Z,8.46
2023-04-04T16:21:22.619Z,8.14
2023-04-04T16:23:50.666Z,8.67
2023-04-04T16:26:21.476Z,8.18
2023-04-04T16:28:50.106Z,8.29
2023-04-04T16:31:18.499Z,8.13
2023-04-04T16:33:47.965Z,7.99
2023-04-04T16:36:17.477Z,8.15
2023-04-04T16:38:47.637Z,7.89
2023-04-04T16:41:19.568Z,7.98
2023-04-04T16:43:53.461Z,7.96
2023-04-04T16:46:22.424Z,7.98
2023-04-04T16:48:50.850Z,7.74
2023-04-04T16:51:19.814Z,7.79
2023-04-04T16:53:48.613Z,7.65
2023-04-04T16:56:17.435Z,7.90
2023-04-04T16:58:47.577Z,7.63
2023-04-04T17:01:20.599Z,7.55
2023-04-04T17:03:49.617Z,7.21
2023-04-04T17:06:18.876Z,7.27
2023-04-04T17:08:49.971Z,7.21
2023-04-04T17:11:18.981Z,7.35
2023-04-04T17:13:51.396Z,6.98
2023-04-04T17:16:20.284Z,6.91
2023-04-04T17:18:50.417Z,6.82
2023-04-04T17:21:25.211Z,6.91
2023-04-04T17:23:55.446Z,6.69
2023-04-04T17:26:29.480Z,6.58
2023-04-04T17:29:22.098Z,6.69
2023-04-04T17:32:08.142Z,6.51
2023-04-04T17:34:39.405Z,6.47
2023-04-04T17:37:12.510Z,6.46
2023-04-04T17:39:42.818Z,6.26
2023-04-04T17:42:15.627Z,6.24
2023-04-04T17:44:53.927Z,6.21
2023-04-04T17:47:27.003Z,6.09
2023-04-04T17:50:04.140Z,6.23
2023-04-04T17:52:33.234Z,6.32
2023-04-04T17:55:02.387Z,6.07
2023-04-04T17:57:31.988Z,6.03
2023-04-04T18:00:02.579Z,5.95
2023-04-04T18:02:37.028Z,5.95
2023-04-04T18:05:10.283Z,5.87
2023-04-04T18:07:39.702Z,5.80
2023-04-04T18:10:09.683Z,5.84
2023-04-04T18:12:37.908Z,5.77
2023-04-04T18:15:09.821Z,5.76
2023-04-04T18:17:41.481Z,5.63
2023-04-04T18:20:12.629Z,5.66
2023-04-04T18:22:42.962Z,5.47
2023-04-04T18:25:11.576Z,5.47
2023-04-04T18:27:39.705Z,5.46
2023-04-04T18:30:10.892Z,5.31
2023-04-04T18:32:40.842Z,5.32
2023-04-04T18:35:10.269Z,5.31
2023-04-04T18:37:38.599Z,5.17
2023-04-04T18:40:10.334Z,5.11
2023-04-04T18:42:38.666Z,5.04
2023-04-04T18:45:09.866Z,5.14
2023-04-04T18:47:42.112Z,5.19
2023-04-04T18:50:13.950Z,5.03
2023-04-04T18:52:43.394Z,5.06
2023-04-04T18:55:13.385Z,5.01
2023-04-04T18:57:42.087Z,5.05
2023-04-04T19:00:16.557Z,4.87
2023-04-04T19:02:45.411Z,4.88
2023-04-04T19:05:14.632Z,4.92
2023-04-04T19:07:44.818Z,4.90
2023-04-04T19:10:15.015Z,4.76
2023-04-04T19:12:43.580Z,4.86
2023-04-04T19:15:12.287Z,4.74
2023-04-04T19:17:42.487Z,4.65
2023-04-04T19:20:14.280Z,4.82
2023-04-04T19:22:42.998Z,4.75
2023-04-04T19:25:12.134Z,4.64
2023-04-04T19:27:40.541Z,4.48
2023-04-04T19:30:34.550Z,4.47
2023-04-04T19:33:09.873Z,4.52
2023-04-04T19:35:55.272Z,4.40
2023-04-04T19:38:25.984Z,4.39
2023-04-04T19:40:58.068Z,4.35
2023-04-04T19:43:28.744Z,4.47
2023-04-04T19:45:57.983Z,4.25
2023-04-04T19:48:42.030Z,4.37
2023-04-04T19:51:11.181Z,4.41
2023-04-04T19:53:42.778Z,4.24
2023-04-04T19:56:15.838Z,4.20
2023-04-04T19:58:48.522Z,4.25
2023-04-04T20:01:23.312Z,4.62
2023-04-04T20:03:53.027Z,4.35
2023-04-04T20:06:27.691Z,4.45
2023-04-04T20:08:57.585Z,4.46
2023-04-04T20:11:33.881Z,4.28
2023-04-04T20:14:22.365Z,4.49
2023-04-04T20:16:57.359Z,4.44
2023-04-04T20:19:47.007Z,4.20
2023-04-04T20:22:16.472Z,4.35
2023-04-04T20:24:47.058Z,4.53
2023-04-04T20:27:23.293Z,4.60
2023-04-04T20:29:54.542Z,4.45
2023-04-04T20:32:22.577Z,4.73
2023-04-04T20:34:53.032Z,4.89
2023-04-04T20:37:22.783Z,5.06
2023-04-04T20:39:54.686Z,5.09
2023-04-04T20:42:40.127Z,4.66
2023-04-04T20:45:34.777Z,4.72
2023-04-04T20:48:06.810Z,4.30
2023-04-04T20:50:47.362Z,4.22
2023-04-04T20:53:20.146Z,4.26
2023-04-04T20:55:50.553Z,4.28
2023-04-04T20:58:27.942Z,4.39
2023-04-04T21:00:58.005Z,4.58
2023-04-04T21:03:32.007Z,4.79
2023-04-04T21:06:04.477Z,4.62
2023-04-04T21:08:39.378Z,4.62
2023-04-04T21:11:07.915Z,4.56
2023-04-04T21:13:39.971Z,4.44
2023-04-04T21:16:09.567Z,4.06
2023-04-04T21:18:38.702Z,3.95
2023-04-04T21:21:13.895Z,3.49
2023-04-04T21:23:45.764Z,3.51
2023-04-04T21:26:21.749Z,3.70
2023-04-04T21:28:49.717Z,3.38
2023-04-04T21:31:19.166Z,3.40
2023-04-04T21:33:48.695Z,3.53
2023-04-04T21:36:29.134Z,3.65
2023-04-04T21:38:58.830Z,3.95
2023-04-04T21:41:28.803Z,3.68
2023-04-04T21:43:58.346Z,3.14
2023-04-04T21:46:27.912Z,2.82
2023-04-04T21:48:56.794Z,2.97
2023-04-04T21:51:26.220Z,3.57
2023-04-04T21:53:54.724Z,4.32
2023-04-04T21:56:27.283Z,4.48
2023-04-04T21:58:55.996Z,4.40
2023-04-04T22:01:24.212Z,3.71
2023-04-04T22:03:52.205Z,3.13
2023-04-04T22:06:21.987Z,2.77
2023-04-04T22:08:51.277Z,2.79
2023-04-04T22:11:20.099Z,2.90
2023-04-04T22:13:48.895Z,2.95
2023-04-04T22:16:17.569Z,3.76
2023-04-04T22:18:47.771Z,4.31
2023-04-04T22:21:17.200Z,4.43
2023-04-04T22:23:48.203Z,3.48
2023-04-04T22:26:33.033Z,3.33
2023-04-04T22:29:03.012Z,3.14
2023-04-04T22:31:34.283Z,3.31
2023-04-04T22:34:03.165Z,3.80
2023-04-04T22:36:31.760Z,4.35
2023-04-04T22:38:59.922Z,4.59
2023-04-04T22:41:30.414Z,4.81
2023-04-04T22:43:58.751Z,4.89
2023-04-04T22:46:28.867Z,4.22
2023-04-04T22:49:05.700Z,3.77
2023-04-04T22:51:44.061Z,3.58
2023-04-04T22:54:16.383Z,3.59
2023-04-04T22:56:46.428Z,3.39
2023-04-04T22:59:15.506Z,3.23
2023-04-04T23:01:43.636Z,3.05
2023-04-04T23:04:11.931Z,2.99
2023-04-04T23:06:40.228Z,3.13
2023-04-04T23:09:08.749Z,2.67
2023-04-04T23:11:37.033Z,2.89
2023-04-04T23:14:09.268Z,2.95
2023-04-04T23:16:38.247Z,3.60
2023-04-04T23:19:06.295Z,3.76
2023-04-04T23:21:34.160Z,3.67
2023-04-04T23:24:02.156Z,3.95
2023-04-04T23:26:30.205Z,3.78
2023-04-04T23:28:59.073Z,4.07
2023-04-04T23:31:28.680Z,4.25
2023-04-04T23:33:56.716Z,4.30
2023-04-04T23:36:24.607Z,3.89
2023-04-04T23:38:54.839Z,3.57
2023-04-04T23:41:23.309Z,4.01
2023-04-04T23:43:54.688Z,3.97
2023-04-04T23:46:23.940Z,3.77
2023-04-04T23:48:53.347Z,3.91
2023-04-04T23:51:25.816Z,4.24
2023-04-04T23:53:53.808Z,4.28
2023-04-04T23:56:22.566Z,4.34
2023-04-04T23:58:50.664Z,3.99
